Terminal Aerodrome Forecast
Issued by NWS Cleveland, OH

Home | Current Version | Previous Version | Graphics & Text | Print | Product List | Glossary Off
Versions: 1 2 3 4 5 6 7 8 9 10 11 12 13 14 15 16 17 18 19 20 21 22 23 24 25 26

728
FTUS41 KCLE 272339
TAFCLE
TAF
KCLE 272339Z 2800/2906 VRB04KT P6SM VCTS BKN040CB OVC150
      TEMPO 2800/2802 VRB12G25KT 3SM -TSRA BKN030CB OVC080
     FM280230 21004KT P6SM FEW040 BKN150
     FM281600 30008KT P6SM SCT035 BKN200
     FM282200 35008KT P6SM FEW035 BKN150=

USA.gov is the U.S. government's official web portal to all federal, state and local government web resources and services.